sensor_id;sensor_type;location;lat;lon;timestamp;P1;durP1;ratioP1;P2;durP2;ratioP2
52438;SDS011;38359;53.150;6.504;2023-05-10T00:09:01;21.25;;;15.98;;
52438;SDS011;38359;53.150;6.504;2023-05-10T00:19:28;20.52;;;15.63;;
52438;SDS011;38359;53.150;6.504;2023-05-10T00:29:53;19.23;;;14.20;;
52438;SDS011;38359;53.150;6.504;2023-05-10T00:40:19;17.70;;;14.45;;
52438;SDS011;38359;53.150;6.504;2023-05-10T00:50:45;15.43;;;11.98;;
52438;SDS011;38359;53.150;6.504;2023-05-10T01:01:11;14.13;;;11.23;;
52438;SDS011;38359;53.150;6.504;2023-05-10T01:11:38;18.70;;;13.95;;
52438;SDS011;38359;53.150;6.504;2023-05-10T01:22:28;21.27;;;14.57;;
52438;SDS011;38359;53.150;6.504;2023-05-10T01:33:46;23.90;;;17.63;;
52438;SDS011;38359;53.150;6.504;2023-05-10T01:55:18;25.50;;;18.10;;
52438;SDS011;38359;53.150;6.504;2023-05-10T02:05:46;23.27;;;16.50;;
52438;SDS011;38359;53.150;6.504;2023-05-10T02:16:14;26.20;;;16.77;;
52438;SDS011;38359;53.150;6.504;2023-05-10T02:26:42;24.67;;;16.85;;
52438;SDS011;38359;53.150;6.504;2023-05-10T02:37:10;33.40;;;20.02;;
52438;SDS011;38359;53.150;6.504;2023-05-10T02:47:39;32.22;;;18.63;;
52438;SDS011;38359;53.150;6.504;2023-05-10T02:58:05;35.22;;;20.67;;
52438;SDS011;38359;53.150;6.504;2023-05-10T03:08:31;53.83;;;25.00;;
52438;SDS011;38359;53.150;6.504;2023-05-10T03:19:06;42.13;;;24.42;;
52438;SDS011;38359;53.150;6.504;2023-05-10T03:30:03;67.63;;;29.55;;
52438;SDS011;38359;53.150;6.504;2023-05-10T03:40:31;72.03;;;29.60;;
52438;SDS011;38359;53.150;6.504;2023-05-10T03:50:57;86.60;;;31.10;;
52438;SDS011;38359;53.150;6.504;2023-05-10T04:01:23;67.60;;;30.10;;
52438;SDS011;38359;53.150;6.504;2023-05-10T04:11:49;66.30;;;29.20;;
52438;SDS011;38359;53.150;6.504;2023-05-10T04:22:14;61.20;;;26.95;;
52438;SDS011;38359;53.150;6.504;2023-05-10T04:32:41;50.85;;;25.63;;
52438;SDS011;38359;53.150;6.504;2023-05-10T04:43:06;27.30;;;14.02;;
52438;SDS011;38359;53.150;6.504;2023-05-10T04:53:32;15.77;;;9.77;;
52438;SDS011;38359;53.150;6.504;2023-05-10T05:03:58;15.50;;;10.00;;
52438;SDS011;38359;53.150;6.504;2023-05-10T05:14:24;15.88;;;7.80;;
52438;SDS011;38359;53.150;6.504;2023-05-10T05:24:50;15.68;;;8.32;;
52438;SDS011;38359;53.150;6.504;2023-05-10T05:35:15;20.13;;;10.18;;
52438;SDS011;38359;53.150;6.504;2023-05-10T05:45:41;11.50;;;8.10;;
52438;SDS011;38359;53.150;6.504;2023-05-10T05:56:07;12.40;;;8.38;;
52438;SDS011;38359;53.150;6.504;2023-05-10T06:06:34;14.73;;;9.63;;
52438;SDS011;38359;53.150;6.504;2023-05-10T06:17:00;13.40;;;8.95;;
52438;SDS011;38359;53.150;6.504;2023-05-10T06:27:28;27.25;;;13.77;;
52438;SDS011;38359;53.150;6.504;2023-05-10T06:37:54;47.72;;;19.88;;
52438;SDS011;38359;53.150;6.504;2023-05-10T06:48:20;23.70;;;12.48;;
52438;SDS011;38359;53.150;6.504;2023-05-10T06:58:46;8.25;;;4.82;;
52438;SDS011;38359;53.150;6.504;2023-05-10T07:09:13;3.88;;;2.95;;
52438;SDS011;38359;53.150;6.504;2023-05-10T07:19:39;5.32;;;4.15;;
52438;SDS011;38359;53.150;6.504;2023-05-10T07:30:05;6.18;;;4.47;;
52438;SDS011;38359;53.150;6.504;2023-05-10T07:40:32;7.57;;;5.10;;
52438;SDS011;38359;53.150;6.504;2023-05-10T07:50:58;8.30;;;6.53;;
52438;SDS011;38359;53.150;6.504;2023-05-10T08:01:24;5.13;;;4.22;;
52438;SDS011;38359;53.150;6.504;2023-05-10T08:11:50;10.60;;;6.45;;
52438;SDS011;38359;53.150;6.504;2023-05-10T08:22:15;7.40;;;5.25;;
52438;SDS011;38359;53.150;6.504;2023-05-10T08:32:42;7.40;;;5.40;;
52438;SDS011;38359;53.150;6.504;2023-05-10T08:43:08;9.00;;;5.53;;
52438;SDS011;38359;53.150;6.504;2023-05-10T08:53:37;10.73;;;8.23;;
52438;SDS011;38359;53.150;6.504;2023-05-10T09:04:03;16.35;;;10.82;;
52438;SDS011;38359;53.150;6.504;2023-05-10T09:14:29;15.93;;;9.43;;
52438;SDS011;38359;53.150;6.504;2023-05-10T09:35:39;11.63;;;8.43;;
52438;SDS011;38359;53.150;6.504;2023-05-10T09:46:08;11.65;;;8.30;;
52438;SDS011;38359;53.150;6.504;2023-05-10T09:56:35;11.73;;;8.60;;
52438;SDS011;38359;53.150;6.504;2023-05-10T10:07:05;13.95;;;9.38;;
52438;SDS011;38359;53.150;6.504;2023-05-10T10:17:30;11.43;;;8.82;;
52438;SDS011;38359;53.150;6.504;2023-05-10T10:28:08;8.63;;;6.78;;
52438;SDS011;38359;53.150;6.504;2023-05-10T10:49:14;10.63;;;6.60;;
52438;SDS011;38359;53.150;6.504;2023-05-10T10:59:42;8.68;;;5.88;;
52438;SDS011;38359;53.150;6.504;2023-05-10T11:10:09;10.27;;;7.00;;
52438;SDS011;38359;53.150;6.504;2023-05-10T11:20:38;11.10;;;7.35;;
52438;SDS011;38359;53.150;6.504;2023-05-10T11:31:04;12.55;;;8.65;;
52438;SDS011;38359;53.150;6.504;2023-05-10T11:41:31;13.10;;;9.73;;
52438;SDS011;38359;53.150;6.504;2023-05-10T11:52:03;13.15;;;8.55;;
52438;SDS011;38359;53.150;6.504;2023-05-10T12:02:31;14.65;;;9.45;;
52438;SDS011;38359;53.150;6.504;2023-05-10T12:12:57;14.57;;;9.43;;
52438;SDS011;38359;53.150;6.504;2023-05-10T12:23:23;15.98;;;8.32;;
52438;SDS011;38359;53.150;6.504;2023-05-10T12:33:48;18.00;;;9.18;;
52438;SDS011;38359;53.150;6.504;2023-05-10T12:44:14;12.98;;;8.18;;
52438;SDS011;38359;53.150;6.504;2023-05-10T12:54:40;12.20;;;9.10;;
52438;SDS011;38359;53.150;6.504;2023-05-10T13:05:06;13.23;;;8.18;;
52438;SDS011;38359;53.150;6.504;2023-05-10T13:15:32;14.15;;;7.78;;
52438;SDS011;38359;53.150;6.504;2023-05-10T13:25:57;10.65;;;7.45;;
52438;SDS011;38359;53.150;6.504;2023-05-10T13:36:23;12.30;;;8.38;;
52438;SDS011;38359;53.150;6.504;2023-05-10T13:46:50;13.35;;;8.80;;
52438;SDS011;38359;53.150;6.504;2023-05-10T13:57:16;12.93;;;6.22;;
52438;SDS011;38359;53.150;6.504;2023-05-10T14:07:42;11.07;;;6.60;;
52438;SDS011;38359;53.150;6.504;2023-05-10T14:18:08;8.18;;;6.30;;
52438;SDS011;38359;53.150;6.504;2023-05-10T14:28:33;10.77;;;6.25;;
52438;SDS011;38359;53.150;6.504;2023-05-10T14:38:59;10.43;;;7.22;;
52438;SDS011;38359;53.150;6.504;2023-05-10T14:49:25;12.38;;;8.30;;
52438;SDS011;38359;53.150;6.504;2023-05-10T14:59:51;11.88;;;8.60;;
52438;SDS011;38359;53.150;6.504;2023-05-10T15:10:17;18.50;;;10.95;;
52438;SDS011;38359;53.150;6.504;2023-05-10T15:20:43;20.00;;;12.60;;
52438;SDS011;38359;53.150;6.504;2023-05-10T15:31:09;17.65;;;13.50;;
52438;SDS011;38359;53.150;6.504;2023-05-10T15:41:35;22.75;;;14.43;;
52438;SDS011;38359;53.150;6.504;2023-05-10T15:52:01;17.73;;;13.27;;
52438;SDS011;38359;53.150;6.504;2023-05-10T16:02:27;14.15;;;8.70;;
52438;SDS011;38359;53.150;6.504;2023-05-10T16:12:53;14.07;;;9.90;;
52438;SDS011;38359;53.150;6.504;2023-05-10T16:23:19;14.68;;;13.05;;
52438;SDS011;38359;53.150;6.504;2023-05-10T16:33:45;17.67;;;12.88;;
52438;SDS011;38359;53.150;6.504;2023-05-10T16:44:11;15.32;;;12.48;;
52438;SDS011;38359;53.150;6.504;2023-05-10T16:54:37;11.98;;;10.10;;
52438;SDS011;38359;53.150;6.504;2023-05-10T17:05:03;12.07;;;8.73;;
52438;SDS011;38359;53.150;6.504;2023-05-10T17:15:29;9.48;;;7.22;;
52438;SDS011;38359;53.150;6.504;2023-05-10T17:25:55;8.35;;;6.78;;
52438;SDS011;38359;53.150;6.504;2023-05-10T17:36:21;7.65;;;6.35;;
52438;SDS011;38359;53.150;6.504;2023-05-10T17:46:46;10.15;;;7.63;;
52438;SDS011;38359;53.150;6.504;2023-05-10T17:57:12;10.85;;;7.50;;
52438;SDS011;38359;53.150;6.504;2023-05-10T18:07:38;9.07;;;7.40;;
52438;SDS011;38359;53.150;6.504;2023-05-10T18:18:04;8.48;;;7.25;;
52438;SDS011;38359;53.150;6.504;2023-05-10T18:28:30;11.23;;;8.30;;
52438;SDS011;38359;53.150;6.504;2023-05-10T18:38:56;11.38;;;8.63;;
52438;SDS011;38359;53.150;6.504;2023-05-10T18:49:21;18.08;;;8.13;;
52438;SDS011;38359;53.150;6.504;2023-05-10T18:59:47;13.20;;;8.95;;
52438;SDS011;38359;53.150;6.504;2023-05-10T19:10:13;11.38;;;7.85;;
52438;SDS011;38359;53.150;6.504;2023-05-10T19:20:39;12.38;;;9.05;;
52438;SDS011;38359;53.150;6.504;2023-05-10T19:31:05;14.70;;;10.23;;
52438;SDS011;38359;53.150;6.504;2023-05-10T19:41:32;11.98;;;8.88;;
52438;SDS011;38359;53.150;6.504;2023-05-10T19:51:57;11.70;;;10.10;;
52438;SDS011;38359;53.150;6.504;2023-05-10T20:02:23;12.70;;;9.88;;
52438;SDS011;38359;53.150;6.504;2023-05-10T20:12:49;12.65;;;8.95;;
52438;SDS011;38359;53.150;6.504;2023-05-10T20:23:16;14.07;;;8.55;;
52438;SDS011;38359;53.150;6.504;2023-05-10T20:33:42;9.63;;;8.35;;
52438;SDS011;38359;53.150;6.504;2023-05-10T20:44:07;13.57;;;10.15;;
52438;SDS011;38359;53.150;6.504;2023-05-10T20:54:34;23.33;;;11.88;;
52438;SDS011;38359;53.150;6.504;2023-05-10T21:05:00;21.67;;;13.00;;
52438;SDS011;38359;53.150;6.504;2023-05-10T21:15:26;19.58;;;12.82;;
52438;SDS011;38359;53.150;6.504;2023-05-10T21:25:52;21.17;;;12.65;;
52438;SDS011;38359;53.150;6.504;2023-05-10T21:36:17;22.42;;;12.82;;
52438;SDS011;38359;53.150;6.504;2023-05-10T21:46:43;20.25;;;13.57;;
52438;SDS011;38359;53.150;6.504;2023-05-10T21:57:09;22.35;;;12.43;;
52438;SDS011;38359;53.150;6.504;2023-05-10T22:07:35;12.85;;;9.77;;
52438;SDS011;38359;53.150;6.504;2023-05-10T22:18:00;15.35;;;9.98;;
52438;SDS011;38359;53.150;6.504;2023-05-10T22:28:26;22.73;;;12.48;;
52438;SDS011;38359;53.150;6.504;2023-05-10T22:38:53;24.38;;;14.35;;
52438;SDS011;38359;53.150;6.504;2023-05-10T22:49:19;25.50;;;15.77;;
52438;SDS011;38359;53.150;6.504;2023-05-10T22:59:44;27.70;;;16.70;;
52438;SDS011;38359;53.150;6.504;2023-05-10T23:10:12;24.45;;;15.45;;
52438;SDS011;38359;53.150;6.504;2023-05-10T23:20:40;35.13;;;16.23;;
52438;SDS011;38359;53.150;6.504;2023-05-10T23:31:06;31.98;;;15.40;;
52438;SDS011;38359;53.150;6.504;2023-05-10T23:41:32;29.10;;;16.50;;
52438;SDS011;38359;53.150;6.504;2023-05-10T23:51:58;29.77;;;16.23;;
